sensor_id;sensor_type;location;lat;lon;timestamp;P1;durP1;ratioP1;P2;durP2;ratioP2
22270;SDS011;11304;53.520;10.104;2023-06-24T00:00:58;15.95;;;11.90;;
22270;SDS011;11304;53.520;10.104;2023-06-24T00:03:24;14.57;;;11.52;;
22270;SDS011;11304;53.520;10.104;2023-06-24T00:05:50;13.77;;;11.45;;
22270;SDS011;11304;53.520;10.104;2023-06-24T00:08:18;16.38;;;12.52;;
22270;SDS011;11304;53.520;10.104;2023-06-24T00:10:46;14.63;;;11.68;;
22270;SDS011;11304;53.520;10.104;2023-06-24T00:13:13;14.38;;;11.70;;
22270;SDS011;11304;53.520;10.104;2023-06-24T00:15:39;15.77;;;12.15;;
22270;SDS011;11304;53.520;10.104;2023-06-24T00:18:08;14.43;;;11.45;;
22270;SDS011;11304;53.520;10.104;2023-06-24T00:20:34;16.10;;;11.70;;
22270;SDS011;11304;53.520;10.104;2023-06-24T00:23:00;13.25;;;11.85;;
22270;SDS011;11304;53.520;10.104;2023-06-24T00:25:26;17.58;;;13.38;;
22270;SDS011;11304;53.520;10.104;2023-06-24T00:27:52;15.13;;;11.90;;
22270;SDS011;11304;53.520;10.104;2023-06-24T00:30:18;17.38;;;13.40;;
22270;SDS011;11304;53.520;10.104;2023-06-24T00:32:44;16.08;;;12.75;;
22270;SDS011;11304;53.520;10.104;2023-06-24T00:35:11;14.02;;;12.27;;
22270;SDS011;11304;53.520;10.104;2023-06-24T00:37:40;16.63;;;11.68;;
22270;SDS011;11304;53.520;10.104;2023-06-24T00:40:11;16.65;;;11.85;;
22270;SDS011;11304;53.520;10.104;2023-06-24T00:42:43;16.27;;;13.05;;
22270;SDS011;11304;53.520;10.104;2023-06-24T00:45:10;16.08;;;13.48;;
22270;SDS011;11304;53.520;10.104;2023-06-24T00:47:36;19.75;;;13.07;;
22270;SDS011;11304;53.520;10.104;2023-06-24T00:50:04;17.23;;;12.50;;
22270;SDS011;11304;53.520;10.104;2023-06-24T00:52:30;12.88;;;11.48;;
22270;SDS011;11304;53.520;10.104;2023-06-24T00:54:57;14.65;;;12.10;;
22270;SDS011;11304;53.520;10.104;2023-06-24T00:57:23;15.15;;;12.07;;
22270;SDS011;11304;53.520;10.104;2023-06-24T00:59:50;15.13;;;11.48;;
22270;SDS011;11304;53.520;10.104;2023-06-24T01:02:18;16.10;;;12.10;;
22270;SDS011;11304;53.520;10.104;2023-06-24T01:04:45;13.70;;;10.77;;
22270;SDS011;11304;53.520;10.104;2023-06-24T01:07:11;23.67;;;13.27;;
22270;SDS011;11304;53.520;10.104;2023-06-24T01:09:37;12.45;;;11.10;;
22270;SDS011;11304;53.520;10.104;2023-06-24T01:12:04;17.80;;;12.32;;
22270;SDS011;11304;53.520;10.104;2023-06-24T01:14:31;13.70;;;11.23;;
22270;SDS011;11304;53.520;10.104;2023-06-24T01:17:32;17.23;;;11.25;;
22270;SDS011;11304;53.520;10.104;2023-06-24T01:22:24;18.88;;;10.75;;
22270;SDS011;11304;53.520;10.104;2023-06-24T01:25:15;16.00;;;10.07;;
22270;SDS011;11304;53.520;10.104;2023-06-24T01:32:59;17.48;;;10.23;;
22270;SDS011;11304;53.520;10.104;2023-06-24T01:35:28;16.02;;;10.60;;
22270;SDS011;11304;53.520;10.104;2023-06-24T01:37:54;15.30;;;10.20;;
22270;SDS011;11304;53.520;10.104;2023-06-24T01:40:27;12.95;;;10.70;;
22270;SDS011;11304;53.520;10.104;2023-06-24T01:42:57;13.10;;;9.90;;
22270;SDS011;11304;53.520;10.104;2023-06-24T01:45:28;13.77;;;9.30;;
22270;SDS011;11304;53.520;10.104;2023-06-24T01:47:57;10.65;;;9.40;;
22270;SDS011;11304;53.520;10.104;2023-06-24T01:50:26;13.43;;;9.60;;
22270;SDS011;11304;53.520;10.104;2023-06-24T01:52:53;12.35;;;9.75;;
22270;SDS011;11304;53.520;10.104;2023-06-24T01:55:20;11.60;;;9.18;;
22270;SDS011;11304;53.520;10.104;2023-06-24T01:57:48;15.20;;;9.20;;
22270;SDS011;11304;53.520;10.104;2023-06-24T02:00:15;13.93;;;10.35;;
22270;SDS011;11304;53.520;10.104;2023-06-24T02:02:41;10.40;;;8.65;;
22270;SDS011;11304;53.520;10.104;2023-06-24T02:05:08;15.20;;;10.10;;
22270;SDS011;11304;53.520;10.104;2023-06-24T02:07:35;10.50;;;8.27;;
22270;SDS011;11304;53.520;10.104;2023-06-24T02:10:02;13.52;;;10.00;;
22270;SDS011;11304;53.520;10.104;2023-06-24T02:12:28;20.45;;;11.23;;
22270;SDS011;11304;53.520;10.104;2023-06-24T02:14:55;15.07;;;10.15;;
22270;SDS011;11304;53.520;10.104;2023-06-24T02:17:23;11.23;;;9.65;;
22270;SDS011;11304;53.520;10.104;2023-06-24T02:19:51;12.30;;;10.13;;
22270;SDS011;11304;53.520;10.104;2023-06-24T02:22:18;17.48;;;11.02;;
22270;SDS011;11304;53.520;10.104;2023-06-24T02:24:45;14.18;;;10.88;;
22270;SDS011;11304;53.520;10.104;2023-06-24T02:27:12;15.88;;;9.68;;
22270;SDS011;11304;53.520;10.104;2023-06-24T02:29:38;10.55;;;8.70;;
22270;SDS011;11304;53.520;10.104;2023-06-24T02:32:05;12.57;;;9.70;;
22270;SDS011;11304;53.520;10.104;2023-06-24T02:34:31;14.10;;;11.00;;
22270;SDS011;11304;53.520;10.104;2023-06-24T02:36:58;13.75;;;9.25;;
22270;SDS011;11304;53.520;10.104;2023-06-24T02:39:24;12.65;;;9.52;;
22270;SDS011;11304;53.520;10.104;2023-06-24T02:41:50;10.98;;;9.35;;
22270;SDS011;11304;53.520;10.104;2023-06-24T02:44:17;16.25;;;10.73;;
22270;SDS011;11304;53.520;10.104;2023-06-24T02:46:43;13.45;;;11.10;;
22270;SDS011;11304;53.520;10.104;2023-06-24T02:49:10;14.07;;;9.70;;
22270;SDS011;11304;53.520;10.104;2023-06-24T02:51:38;15.43;;;11.02;;
22270;SDS011;11304;53.520;10.104;2023-06-24T02:54:04;11.80;;;9.30;;
22270;SDS011;11304;53.520;10.104;2023-06-24T02:56:31;9.85;;;8.30;;
22270;SDS011;11304;53.520;10.104;2023-06-24T02:58:57;11.25;;;8.50;;
22270;SDS011;11304;53.520;10.104;2023-06-24T03:01:23;10.40;;;8.32;;
22270;SDS011;11304;53.520;10.104;2023-06-24T03:03:54;11.77;;;8.40;;
22270;SDS011;11304;53.520;10.104;2023-06-24T03:06:20;11.65;;;8.60;;
22270;SDS011;11304;53.520;10.104;2023-06-24T03:08:47;10.85;;;8.18;;
22270;SDS011;11304;53.520;10.104;2023-06-24T03:11:13;9.32;;;7.97;;
22270;SDS011;11304;53.520;10.104;2023-06-24T03:13:40;8.43;;;7.63;;
22270;SDS011;11304;53.520;10.104;2023-06-24T03:16:06;9.35;;;7.63;;
22270;SDS011;11304;53.520;10.104;2023-06-24T03:18:38;10.05;;;8.27;;
22270;SDS011;11304;53.520;10.104;2023-06-24T03:21:04;12.63;;;8.98;;
22270;SDS011;11304;53.520;10.104;2023-06-24T03:23:31;11.73;;;8.15;;
22270;SDS011;11304;53.520;10.104;2023-06-24T03:25:57;12.50;;;6.82;;
22270;SDS011;11304;53.520;10.104;2023-06-24T03:28:23;8.68;;;6.65;;
22270;SDS011;11304;53.520;10.104;2023-06-24T03:30:49;7.00;;;6.20;;
22270;SDS011;11304;53.520;10.104;2023-06-24T03:33:15;7.47;;;5.85;;
22270;SDS011;11304;53.520;10.104;2023-06-24T03:35:42;7.13;;;5.07;;
22270;SDS011;11304;53.520;10.104;2023-06-24T03:38:08;6.18;;;5.10;;
22270;SDS011;11304;53.520;10.104;2023-06-24T03:40:35;5.28;;;4.75;;
22270;SDS011;11304;53.520;10.104;2023-06-24T03:43:01;9.35;;;7.00;;
22270;SDS011;11304;53.520;10.104;2023-06-24T03:45:27;8.70;;;6.28;;
22270;SDS011;11304;53.520;10.104;2023-06-24T03:47:53;7.00;;;6.30;;
22270;SDS011;11304;53.520;10.104;2023-06-24T03:50:19;11.27;;;7.45;;
22270;SDS011;11304;53.520;10.104;2023-06-24T03:52:45;7.32;;;5.82;;
22270;SDS011;11304;53.520;10.104;2023-06-24T03:55:11;11.40;;;5.72;;
22270;SDS011;11304;53.520;10.104;2023-06-24T03:57:37;8.43;;;6.35;;
22270;SDS011;11304;53.520;10.104;2023-06-24T04:00:03;8.63;;;6.70;;
22270;SDS011;11304;53.520;10.104;2023-06-24T04:02:38;9.93;;;8.52;;
22270;SDS011;11304;53.520;10.104;2023-06-24T04:05:04;8.88;;;7.20;;
22270;SDS011;11304;53.520;10.104;2023-06-24T04:07:31;10.13;;;8.02;;
22270;SDS011;11304;53.520;10.104;2023-06-24T04:09:57;12.13;;;9.00;;
22270;SDS011;11304;53.520;10.104;2023-06-24T04:12:24;11.20;;;9.57;;
22270;SDS011;11304;53.520;10.104;2023-06-24T04:14:50;11.77;;;9.50;;
22270;SDS011;11304;53.520;10.104;2023-06-24T04:17:16;11.68;;;9.88;;
22270;SDS011;11304;53.520;10.104;2023-06-24T04:19:42;14.63;;;12.98;;
22270;SDS011;11304;53.520;10.104;2023-06-24T04:22:08;14.77;;;12.90;;
22270;SDS011;11304;53.520;10.104;2023-06-24T04:24:34;22.00;;;17.48;;
22270;SDS011;11304;53.520;10.104;2023-06-24T04:27:00;18.13;;;15.25;;
22270;SDS011;11304;53.520;10.104;2023-06-24T04:29:26;17.27;;;15.40;;
22270;SDS011;11304;53.520;10.104;2023-06-24T04:31:52;17.02;;;15.13;;
22270;SDS011;11304;53.520;10.104;2023-06-24T04:34:19;16.95;;;12.95;;
22270;SDS011;11304;53.520;10.104;2023-06-24T04:36:45;16.70;;;13.43;;
22270;SDS011;11304;53.520;10.104;2023-06-24T04:39:11;16.67;;;13.73;;
22270;SDS011;11304;53.520;10.104;2023-06-24T04:41:37;15.27;;;12.40;;
22270;SDS011;11304;53.520;10.104;2023-06-24T04:44:03;15.80;;;14.13;;
22270;SDS011;11304;53.520;10.104;2023-06-24T04:46:30;18.92;;;14.85;;
22270;SDS011;11304;53.520;10.104;2023-06-24T04:48:58;14.55;;;9.85;;
22270;SDS011;11304;53.520;10.104;2023-06-24T04:51:24;13.30;;;7.63;;
22270;SDS011;11304;53.520;10.104;2023-06-24T04:53:50;9.00;;;5.68;;
22270;SDS011;11304;53.520;10.104;2023-06-24T04:56:16;9.38;;;5.80;;
22270;SDS011;11304;53.520;10.104;2023-06-24T04:58:42;9.68;;;5.72;;
22270;SDS011;11304;53.520;10.104;2023-06-24T05:01:09;9.88;;;5.40;;
22270;SDS011;11304;53.520;10.104;2023-06-24T05:03:35;8.05;;;5.22;;
22270;SDS011;11304;53.520;10.104;2023-06-24T05:06:01;8.30;;;4.57;;
22270;SDS011;11304;53.520;10.104;2023-06-24T05:08:27;9.77;;;4.57;;
22270;SDS011;11304;53.520;10.104;2023-06-24T05:10:54;7.25;;;4.75;;
22270;SDS011;11304;53.520;10.104;2023-06-24T05:13:20;7.80;;;4.90;;
22270;SDS011;11304;53.520;10.104;2023-06-24T05:15:46;8.77;;;4.90;;
22270;SDS011;11304;53.520;10.104;2023-06-24T05:18:12;9.27;;;4.82;;
22270;SDS011;11304;53.520;10.104;2023-06-24T05:20:38;8.23;;;4.82;;
22270;SDS011;11304;53.520;10.104;2023-06-24T05:23:04;6.55;;;5.00;;
22270;SDS011;11304;53.520;10.104;2023-06-24T05:25:30;10.43;;;5.70;;
22270;SDS011;11304;53.520;10.104;2023-06-24T05:27:56;8.20;;;4.47;;
22270;SDS011;11304;53.520;10.104;2023-06-24T05:30:23;9.00;;;5.18;;
22270;SDS011;11304;53.520;10.104;2023-06-24T05:32:49;12.52;;;6.72;;
22270;SDS011;11304;53.520;10.104;2023-06-24T05:35:15;12.43;;;9.70;;
22270;SDS011;11304;53.520;10.104;2023-06-24T05:37:41;12.93;;;8.07;;
22270;SDS011;11304;53.520;10.104;2023-06-24T05:40:07;14.13;;;12.20;;
22270;SDS011;11304;53.520;10.104;2023-06-24T05:42:34;12.80;;;11.18;;
22270;SDS011;11304;53.520;10.104;2023-06-24T05:45:00;14.88;;;11.40;;
22270;SDS011;11304;53.520;10.104;2023-06-24T05:47:26;14.80;;;9.70;;
22270;SDS011;11304;53.520;10.104;2023-06-24T05:49:53;12.75;;;10.60;;
22270;SDS011;11304;53.520;10.104;2023-06-24T05:52:19;15.20;;;10.88;;
22270;SDS011;11304;53.520;10.104;2023-06-24T05:54:45;12.65;;;9.90;;
22270;SDS011;11304;53.520;10.104;2023-06-24T05:57:11;13.93;;;9.85;;
22270;SDS011;11304;53.520;10.104;2023-06-24T05:59:37;15.23;;;10.38;;
22270;SDS011;11304;53.520;10.104;2023-06-24T06:02:03;11.25;;;7.82;;
22270;SDS011;11304;53.520;10.104;2023-06-24T06:04:29;12.32;;;8.32;;
22270;SDS011;11304;53.520;10.104;2023-06-24T06:06:55;10.40;;;7.15;;
22270;SDS011;11304;53.520;10.104;2023-06-24T06:09:22;9.80;;;6.32;;
22270;SDS011;11304;53.520;10.104;2023-06-24T06:11:48;11.45;;;7.90;;
22270;SDS011;11304;53.520;10.104;2023-06-24T06:14:14;15.07;;;7.40;;
22270;SDS011;11304;53.520;10.104;2023-06-24T06:16:40;11.93;;;6.65;;
22270;SDS011;11304;53.520;10.104;2023-06-24T06:19:06;8.75;;;5.38;;
22270;SDS011;11304;53.520;10.104;2023-06-24T06:21:32;7.70;;;6.15;;
22270;SDS011;11304;53.520;10.104;2023-06-24T06:23:58;12.05;;;6.45;;
22270;SDS011;11304;53.520;10.104;2023-06-24T06:26:24;7.93;;;6.35;;
22270;SDS011;11304;53.520;10.104;2023-06-24T06:28:51;10.38;;;5.82;;
22270;SDS011;11304;53.520;10.104;2023-06-24T06:31:18;8.45;;;6.13;;
22270;SDS011;11304;53.520;10.104;2023-06-24T06:33:46;8.25;;;5.68;;
22270;SDS011;11304;53.520;10.104;2023-06-24T06:36:13;11.88;;;6.28;;
22270;SDS011;11304;53.520;10.104;2023-06-24T06:38:40;7.85;;;6.13;;
22270;SDS011;11304;53.520;10.104;2023-06-24T06:41:06;9.43;;;5.70;;
22270;SDS011;11304;53.520;10.104;2023-06-24T06:43:33;9.75;;;5.93;;
22270;SDS011;11304;53.520;10.104;2023-06-24T06:45:59;9.07;;;5.80;;
22270;SDS011;11304;53.520;10.104;2023-06-24T06:48:25;8.30;;;5.57;;
22270;SDS011;11304;53.520;10.104;2023-06-24T06:50:51;11.18;;;5.90;;
22270;SDS011;11304;53.520;10.104;2023-06-24T06:53:18;9.27;;;5.32;;
22270;SDS011;11304;53.520;10.104;2023-06-24T06:55:44;7.68;;;4.82;;
22270;SDS011;11304;53.520;10.104;2023-06-24T06:58:10;12.82;;;6.65;;
22270;SDS011;11304;53.520;10.104;2023-06-24T07:00:36;13.70;;;6.88;;
22270;SDS011;11304;53.520;10.104;2023-06-24T07:03:02;12.05;;;6.13;;
22270;SDS011;11304;53.520;10.104;2023-06-24T07:05:29;10.18;;;4.85;;
22270;SDS011;11304;53.520;10.104;2023-06-24T07:07:55;7.97;;;4.88;;
22270;SDS011;11304;53.520;10.104;2023-06-24T07:10:21;7.38;;;4.65;;
22270;SDS011;11304;53.520;10.104;2023-06-24T07:12:47;6.45;;;4.82;;
22270;SDS011;11304;53.520;10.104;2023-06-24T07:15:13;6.50;;;4.63;;
22270;SDS011;11304;53.520;10.104;2023-06-24T07:17:40;10.80;;;4.40;;
22270;SDS011;11304;53.520;10.104;2023-06-24T07:20:07;5.60;;;4.22;;
22270;SDS011;11304;53.520;10.104;2023-06-24T07:22:33;9.20;;;4.65;;
22270;SDS011;11304;53.520;10.104;2023-06-24T07:24:59;6.85;;;4.55;;
22270;SDS011;11304;53.520;10.104;2023-06-24T07:27:25;7.38;;;4.00;;
22270;SDS011;11304;53.520;10.104;2023-06-24T07:29:51;7.22;;;4.50;;
22270;SDS011;11304;53.520;10.104;2023-06-24T07:32:17;6.95;;;3.90;;
22270;SDS011;11304;53.520;10.104;2023-06-24T07:34:44;6.55;;;4.30;;
22270;SDS011;11304;53.520;10.104;2023-06-24T07:37:10;6.93;;;4.32;;
22270;SDS011;11304;53.520;10.104;2023-06-24T07:39:36;7.72;;;4.20;;
22270;SDS011;11304;53.520;10.104;2023-06-24T07:42:02;8.20;;;4.32;;
22270;SDS011;11304;53.520;10.104;2023-06-24T07:44:28;9.23;;;3.95;;
22270;SDS011;11304;53.520;10.104;2023-06-24T07:46:54;7.78;;;3.92;;
22270;SDS011;11304;53.520;10.104;2023-06-24T07:49:20;7.68;;;4.10;;
22270;SDS011;11304;53.520;10.104;2023-06-24T07:51:46;7.95;;;4.85;;
22270;SDS011;11304;53.520;10.104;2023-06-24T07:54:12;6.40;;;4.30;;
22270;SDS011;11304;53.520;10.104;2023-06-24T07:56:39;10.70;;;5.15;;
22270;SDS011;11304;53.520;10.104;2023-06-24T07:59:05;10.45;;;5.32;;
22270;SDS011;11304;53.520;10.104;2023-06-24T08:01:31;9.45;;;4.93;;
22270;SDS011;11304;53.520;10.104;2023-06-24T08:03:57;11.70;;;5.38;;
22270;SDS011;11304;53.520;10.104;2023-06-24T08:06:23;5.80;;;4.35;;
22270;SDS011;11304;53.520;10.104;2023-06-24T08:08:49;10.13;;;5.18;;
22270;SDS011;11304;53.520;10.104;2023-06-24T08:11:15;8.93;;;4.32;;
22270;SDS011;11304;53.520;10.104;2023-06-24T08:13:41;6.85;;;4.07;;
22270;SDS011;11304;53.520;10.104;2023-06-24T08:16:07;7.47;;;4.60;;
22270;SDS011;11304;53.520;10.104;2023-06-24T08:18:34;6.25;;;4.47;;
22270;SDS011;11304;53.520;10.104;2023-06-24T08:21:00;8.88;;;4.63;;
22270;SDS011;11304;53.520;10.104;2023-06-24T08:23:26;9.73;;;5.00;;
22270;SDS011;11304;53.520;10.104;2023-06-24T08:25:52;8.88;;;5.55;;
22270;SDS011;11304;53.520;10.104;2023-06-24T08:28:18;8.13;;;4.60;;
22270;SDS011;11304;53.520;10.104;2023-06-24T08:30:44;8.43;;;5.40;;
22270;SDS011;11304;53.520;10.104;2023-06-24T08:33:10;8.98;;;5.32;;
22270;SDS011;11304;53.520;10.104;2023-06-24T08:35:36;9.90;;;5.57;;
22270;SDS011;11304;53.520;10.104;2023-06-24T08:38:02;11.27;;;6.00;;
22270;SDS011;11304;53.520;10.104;2023-06-24T08:40:28;5.72;;;4.93;;
22270;SDS011;11304;53.520;10.104;2023-06-24T08:42:55;8.05;;;4.90;;
22270;SDS011;11304;53.520;10.104;2023-06-24T08:45:23;8.50;;;5.70;;
22270;SDS011;11304;53.520;10.104;2023-06-24T08:47:49;7.30;;;5.40;;
22270;SDS011;11304;53.520;10.104;2023-06-24T08:50:15;9.77;;;5.90;;
22270;SDS011;11304;53.520;10.104;2023-06-24T08:52:42;9.00;;;5.07;;
22270;SDS011;11304;53.520;10.104;2023-06-24T08:55:10;6.60;;;5.05;;
22270;SDS011;11304;53.520;10.104;2023-06-24T08:57:36;7.72;;;5.13;;
22270;SDS011;11304;53.520;10.104;2023-06-24T09:00:02;6.55;;;4.43;;
22270;SDS011;11304;53.520;10.104;2023-06-24T09:02:30;8.40;;;4.38;;
22270;SDS011;11304;53.520;10.104;2023-06-24T09:07:27;5.05;;;4.03;;
22270;SDS011;11304;53.520;10.104;2023-06-24T09:09:53;5.72;;;3.83;;
22270;SDS011;11304;53.520;10.104;2023-06-24T09:12:20;8.95;;;4.57;;
22270;SDS011;11304;53.520;10.104;2023-06-24T09:14:49;6.35;;;4.07;;
22270;SDS011;11304;53.520;10.104;2023-06-24T09:17:16;6.00;;;3.80;;
22270;SDS011;11304;53.520;10.104;2023-06-24T09:19:42;7.13;;;3.92;;
22270;SDS011;11304;53.520;10.104;2023-06-24T09:22:08;6.43;;;3.85;;
22270;SDS011;11304;53.520;10.104;2023-06-24T09:24:42;5.38;;;3.45;;
22270;SDS011;11304;53.520;10.104;2023-06-24T09:27:12;7.78;;;3.70;;
22270;SDS011;11304;53.520;10.104;2023-06-24T09:29:40;6.30;;;3.47;;
22270;SDS011;11304;53.520;10.104;2023-06-24T09:32:06;6.47;;;3.67;;
22270;SDS011;11304;53.520;10.104;2023-06-24T09:34:32;6.65;;;3.40;;
22270;SDS011;11304;53.520;10.104;2023-06-24T09:36:59;6.15;;;3.33;;
22270;SDS011;11304;53.520;10.104;2023-06-24T09:39:26;6.22;;;3.40;;
22270;SDS011;11304;53.520;10.104;2023-06-24T09:41:56;7.32;;;3.40;;
22270;SDS011;11304;53.520;10.104;2023-06-24T09:44:23;6.50;;;3.97;;
22270;SDS011;11304;53.520;10.104;2023-06-24T09:46:49;7.45;;;4.15;;
22270;SDS011;11304;53.520;10.104;2023-06-24T09:49:15;6.78;;;3.60;;
22270;SDS011;11304;53.520;10.104;2023-06-24T09:51:45;10.35;;;4.63;;
22270;SDS011;11304;53.520;10.104;2023-06-24T09:54:12;7.63;;;4.28;;
22270;SDS011;11304;53.520;10.104;2023-06-24T09:56:59;7.55;;;4.20;;
22270;SDS011;11304;53.520;10.104;2023-06-24T09:59:24;6.85;;;4.10;;
22270;SDS011;11304;53.520;10.104;2023-06-24T10:01:52;5.68;;;4.10;;
22270;SDS011;11304;53.520;10.104;2023-06-24T10:04:19;5.43;;;4.63;;
22270;SDS011;11304;53.520;10.104;2023-06-24T10:06:47;8.25;;;4.57;;
22270;SDS011;11304;53.520;10.104;2023-06-24T10:09:13;7.63;;;4.55;;
22270;SDS011;11304;53.520;10.104;2023-06-24T10:11:42;6.28;;;4.28;;
22270;SDS011;11304;53.520;10.104;2023-06-24T10:14:08;7.38;;;4.45;;
22270;SDS011;11304;53.520;10.104;2023-06-24T10:16:34;5.68;;;4.50;;
22270;SDS011;11304;53.520;10.104;2023-06-24T10:19:01;5.88;;;4.43;;
22270;SDS011;11304;53.520;10.104;2023-06-24T10:21:44;6.00;;;4.22;;
22270;SDS011;11304;53.520;10.104;2023-06-24T10:24:11;6.25;;;4.50;;
22270;SDS011;11304;53.520;10.104;2023-06-24T10:26:39;8.45;;;4.53;;
22270;SDS011;11304;53.520;10.104;2023-06-24T10:36:54;6.88;;;4.30;;
22270;SDS011;11304;53.520;10.104;2023-06-24T10:44:59;6.65;;;4.15;;
22270;SDS011;11304;53.520;10.104;2023-06-24T10:47:26;8.75;;;4.78;;
22270;SDS011;11304;53.520;10.104;2023-06-24T10:49:52;7.28;;;4.10;;
22270;SDS011;11304;53.520;10.104;2023-06-24T10:52:19;7.18;;;4.60;;
22270;SDS011;11304;53.520;10.104;2023-06-24T10:54:46;6.47;;;4.10;;
22270;SDS011;11304;53.520;10.104;2023-06-24T10:57:12;6.78;;;4.88;;
22270;SDS011;11304;53.520;10.104;2023-06-24T10:59:39;5.75;;;4.40;;
22270;SDS011;11304;53.520;10.104;2023-06-24T11:02:07;8.38;;;5.50;;
22270;SDS011;11304;53.520;10.104;2023-06-24T11:04:41;8.88;;;4.85;;
22270;SDS011;11304;53.520;10.104;2023-06-24T11:07:08;10.95;;;5.47;;
22270;SDS011;11304;53.520;10.104;2023-06-24T11:09:34;8.38;;;5.50;;
22270;SDS011;11304;53.520;10.104;2023-06-24T11:12:02;7.45;;;4.82;;
22270;SDS011;11304;53.520;10.104;2023-06-24T11:14:28;7.15;;;4.30;;
22270;SDS011;11304;53.520;10.104;2023-06-24T11:16:54;5.10;;;4.22;;
22270;SDS011;11304;53.520;10.104;2023-06-24T11:19:20;6.10;;;4.47;;
22270;SDS011;11304;53.520;10.104;2023-06-24T11:21:46;6.30;;;4.32;;
22270;SDS011;11304;53.520;10.104;2023-06-24T11:24:12;5.75;;;4.65;;
22270;SDS011;11304;53.520;10.104;2023-06-24T11:26:39;5.38;;;4.22;;
22270;SDS011;11304;53.520;10.104;2023-06-24T11:29:11;7.63;;;4.38;;
22270;SDS011;11304;53.520;10.104;2023-06-24T11:31:37;6.13;;;3.80;;
22270;SDS011;11304;53.520;10.104;2023-06-24T11:34:04;7.45;;;3.85;;
22270;SDS011;11304;53.520;10.104;2023-06-24T11:36:30;5.88;;;3.65;;
22270;SDS011;11304;53.520;10.104;2023-06-24T11:38:57;5.18;;;3.83;;
22270;SDS011;11304;53.520;10.104;2023-06-24T11:41:23;5.85;;;3.90;;
22270;SDS011;11304;53.520;10.104;2023-06-24T11:43:51;6.45;;;3.97;;
22270;SDS011;11304;53.520;10.104;2023-06-24T11:46:26;6.70;;;4.65;;
22270;SDS011;11304;53.520;10.104;2023-06-24T11:49:06;7.57;;;4.90;;
22270;SDS011;11304;53.520;10.104;2023-06-24T11:51:32;4.68;;;4.20;;
22270;SDS011;11304;53.520;10.104;2023-06-24T11:56:38;7.72;;;5.57;;
22270;SDS011;11304;53.520;10.104;2023-06-24T11:59:15;7.10;;;4.45;;
22270;SDS011;11304;53.520;10.104;2023-06-24T12:01:45;5.60;;;4.10;;
22270;SDS011;11304;53.520;10.104;2023-06-24T12:04:14;9.52;;;4.80;;
22270;SDS011;11304;53.520;10.104;2023-06-24T12:06:41;6.72;;;4.90;;
22270;SDS011;11304;53.520;10.104;2023-06-24T12:09:07;7.78;;;4.75;;
22270;SDS011;11304;53.520;10.104;2023-06-24T12:11:33;7.35;;;4.85;;
22270;SDS011;11304;53.520;10.104;2023-06-24T12:14:00;6.75;;;4.45;;
22270;SDS011;11304;53.520;10.104;2023-06-24T12:16:26;7.97;;;4.45;;
22270;SDS011;11304;53.520;10.104;2023-06-24T12:18:52;6.60;;;4.47;;
22270;SDS011;11304;53.520;10.104;2023-06-24T12:21:19;5.60;;;4.03;;
22270;SDS011;11304;53.520;10.104;2023-06-24T12:23:45;9.63;;;4.10;;
22270;SDS011;11304;53.520;10.104;2023-06-24T12:26:11;5.38;;;4.43;;
22270;SDS011;11304;53.520;10.104;2023-06-24T12:28:38;10.13;;;4.90;;
22270;SDS011;11304;53.520;10.104;2023-06-24T12:31:04;5.75;;;4.72;;
22270;SDS011;11304;53.520;10.104;2023-06-24T12:33:30;7.35;;;5.32;;
22270;SDS011;11304;53.520;10.104;2023-06-24T12:35:56;7.18;;;4.93;;
22270;SDS011;11304;53.520;10.104;2023-06-24T12:38:22;7.85;;;5.35;;
22270;SDS011;11304;53.520;10.104;2023-06-24T12:40:48;8.07;;;5.38;;
22270;SDS011;11304;53.520;10.104;2023-06-24T12:43:15;5.88;;;4.72;;
22270;SDS011;11304;53.520;10.104;2023-06-24T12:45:41;6.95;;;4.82;;
22270;SDS011;11304;53.520;10.104;2023-06-24T12:48:11;7.65;;;4.90;;
22270;SDS011;11304;53.520;10.104;2023-06-24T12:50:37;6.38;;;4.30;;
22270;SDS011;11304;53.520;10.104;2023-06-24T12:53:03;5.90;;;4.00;;
22270;SDS011;11304;53.520;10.104;2023-06-24T12:55:29;4.95;;;3.65;;
22270;SDS011;11304;53.520;10.104;2023-06-24T12:57:56;8.07;;;4.07;;
22270;SDS011;11304;53.520;10.104;2023-06-24T13:00:23;5.88;;;4.35;;
22270;SDS011;11304;53.520;10.104;2023-06-24T13:02:50;5.43;;;4.20;;
22270;SDS011;11304;53.520;10.104;2023-06-24T13:05:17;5.88;;;4.65;;
22270;SDS011;11304;53.520;10.104;2023-06-24T13:07:43;6.93;;;5.30;;
22270;SDS011;11304;53.520;10.104;2023-06-24T13:10:09;4.07;;;3.65;;
22270;SDS011;11304;53.520;10.104;2023-06-24T13:12:35;6.20;;;4.47;;
22270;SDS011;11304;53.520;10.104;2023-06-24T13:15:02;7.80;;;4.45;;
22270;SDS011;11304;53.520;10.104;2023-06-24T13:17:29;7.50;;;4.78;;
22270;SDS011;11304;53.520;10.104;2023-06-24T13:19:56;7.45;;;4.70;;
22270;SDS011;11304;53.520;10.104;2023-06-24T13:22:22;7.63;;;4.10;;
22270;SDS011;11304;53.520;10.104;2023-06-24T13:24:48;9.30;;;4.65;;
22270;SDS011;11304;53.520;10.104;2023-06-24T13:27:14;6.35;;;4.55;;
22270;SDS011;11304;53.520;10.104;2023-06-24T13:29:41;7.10;;;4.40;;
22270;SDS011;11304;53.520;10.104;2023-06-24T13:32:07;6.95;;;4.32;;
22270;SDS011;11304;53.520;10.104;2023-06-24T13:34:34;6.80;;;3.72;;
22270;SDS011;11304;53.520;10.104;2023-06-24T13:37:00;6.35;;;4.40;;
22270;SDS011;11304;53.520;10.104;2023-06-24T13:39:27;5.88;;;4.63;;
22270;SDS011;11304;53.520;10.104;2023-06-24T13:41:53;7.18;;;5.35;;
22270;SDS011;11304;53.520;10.104;2023-06-24T13:44:19;5.82;;;4.18;;
22270;SDS011;11304;53.520;10.104;2023-06-24T13:46:45;7.32;;;4.35;;
22270;SDS011;11304;53.520;10.104;2023-06-24T13:49:12;5.28;;;4.03;;
22270;SDS011;11304;53.520;10.104;2023-06-24T13:51:38;6.32;;;4.20;;
22270;SDS011;11304;53.520;10.104;2023-06-24T13:54:05;6.45;;;4.38;;
22270;SDS011;11304;53.520;10.104;2023-06-24T13:56:31;5.88;;;4.60;;
22270;SDS011;11304;53.520;10.104;2023-06-24T13:58:57;6.68;;;4.40;;
22270;SDS011;11304;53.520;10.104;2023-06-24T14:01:23;4.25;;;3.85;;
22270;SDS011;11304;53.520;10.104;2023-06-24T14:03:49;7.35;;;4.35;;
22270;SDS011;11304;53.520;10.104;2023-06-24T14:06:18;5.28;;;4.00;;
22270;SDS011;11304;53.520;10.104;2023-06-24T14:08:44;7.38;;;4.07;;
22270;SDS011;11304;53.520;10.104;2023-06-24T14:11:10;5.70;;;4.18;;
22270;SDS011;11304;53.520;10.104;2023-06-24T14:13:37;4.80;;;4.13;;
22270;SDS011;11304;53.520;10.104;2023-06-24T14:16:03;7.18;;;4.88;;
22270;SDS011;11304;53.520;10.104;2023-06-24T14:18:29;5.95;;;4.38;;
22270;SDS011;11304;53.520;10.104;2023-06-24T14:20:59;7.63;;;4.40;;
22270;SDS011;11304;53.520;10.104;2023-06-24T14:23:26;5.53;;;3.80;;
22270;SDS011;11304;53.520;10.104;2023-06-24T14:25:52;5.53;;;4.50;;
22270;SDS011;11304;53.520;10.104;2023-06-24T14:28:18;7.05;;;3.90;;
22270;SDS011;11304;53.520;10.104;2023-06-24T14:30:44;7.05;;;4.13;;
22270;SDS011;11304;53.520;10.104;2023-06-24T14:33:11;6.28;;;3.97;;
22270;SDS011;11304;53.520;10.104;2023-06-24T14:35:37;5.03;;;3.80;;
22270;SDS011;11304;53.520;10.104;2023-06-24T14:38:03;5.10;;;3.63;;
22270;SDS011;11304;53.520;10.104;2023-06-24T14:40:30;6.93;;;3.88;;
22270;SDS011;11304;53.520;10.104;2023-06-24T14:42:56;6.22;;;3.90;;
22270;SDS011;11304;53.520;10.104;2023-06-24T14:45:22;5.03;;;3.90;;
22270;SDS011;11304;53.520;10.104;2023-06-24T14:47:48;6.80;;;4.28;;
22270;SDS011;11304;53.520;10.104;2023-06-24T14:50:15;7.25;;;4.13;;